createdAt,value
2023-03-02T00:02:15.304Z,100.00
2023-03-02T00:04:57.696Z,100.00
2023-03-02T00:07:34.431Z,100.00
2023-03-02T00:10:05.777Z,100.00
2023-03-02T00:12:46.471Z,100.00
2023-03-02T00:15:13.141Z,100.00
2023-03-02T00:17:42.106Z,100.00
2023-03-02T00:20:10.409Z,100.00
2023-03-02T00:22:46.026Z,100.00
2023-03-02T00:25:19.638Z,100.00
2023-03-02T00:27:46.393Z,100.00
2023-03-02T00:30:15.561Z,100.00
2023-03-02T00:32:45.864Z,100.00
2023-03-02T00:35:12.961Z,100.00
2023-03-02T00:37:46.572Z,100.00
2023-03-02T00:40:16.240Z,100.00
2023-03-02T00:42:45.610Z,100.00
2023-03-02T00:45:12.400Z,100.00
2023-03-02T00:47:48.284Z,100.00
2023-03-02T00:50:15.098Z,100.00
2023-03-02T00:52:52.084Z,100.00
2023-03-02T00:55:19.441Z,100.00
2023-03-02T00:57:54.822Z,100.00
2023-03-02T01:00:28.475Z,100.00
2023-03-02T01:02:56.170Z,100.00
2023-03-02T01:05:23.051Z,100.00
2023-03-02T01:07:49.905Z,100.00
2023-03-02T01:10:17.046Z,100.00
2023-03-02T01:12:46.604Z,100.00
2023-03-02T01:15:13.841Z,100.00
2023-03-02T01:17:46.754Z,100.00
2023-03-02T01:20:14.604Z,100.00
2023-03-02T01:22:45.349Z,100.00
2023-03-02T01:25:14.347Z,100.00
2023-03-02T01:27:44.145Z,100.00
2023-03-02T01:30:12.692Z,100.00
2023-03-02T01:32:57.733Z,100.00
2023-03-02T01:35:24.470Z,100.00
2023-03-02T01:37:51.126Z,100.00
2023-03-02T01:40:18.176Z,100.00
2023-03-02T01:43:02.337Z,100.00
2023-03-02T01:45:48.721Z,100.00
2023-03-02T01:48:25.906Z,100.00
2023-03-02T01:50:54.297Z,100.00
2023-03-02T01:53:36.668Z,100.00
2023-03-02T01:56:05.968Z,100.00
2023-03-02T01:58:37.694Z,100.00
2023-03-02T02:01:06.527Z,100.00
2023-03-02T02:03:34.212Z,100.00
2023-03-02T02:07:05.740Z,100.00
2023-03-02T02:09:52.382Z,100.00
2023-03-02T02:12:26.767Z,100.00
2023-03-02T02:14:55.047Z,100.00
2023-03-02T02:17:22.306Z,100.00
2023-03-02T02:20:15.543Z,100.00
2023-03-02T02:23:13.186Z,100.00
2023-03-02T02:25:55.275Z,100.00
2023-03-02T02:29:12.185Z,100.00
2023-03-02T02:32:06.718Z,100.00
2023-03-02T02:35:01.479Z,100.00
2023-03-02T02:37:41.890Z,100.00
2023-03-02T02:40:38.454Z,100.00
2023-03-02T02:43:13.895Z,100.00
2023-03-02T02:45:44.761Z,100.00
2023-03-02T02:48:23.204Z,100.00
2023-03-02T02:51:00.040Z,100.00
2023-03-02T02:53:34.209Z,100.00
2023-03-02T02:56:07.690Z,100.00
2023-03-02T02:58:47.559Z,100.00
2023-03-02T03:01:19.132Z,100.00
2023-03-02T03:04:07.228Z,100.00
2023-03-02T03:06:45.171Z,100.00
2023-03-02T03:09:12.236Z,100.00
2023-03-02T03:12:08.507Z,100.00
2023-03-02T03:14:44.564Z,100.00
2023-03-02T03:17:14.478Z,100.00
2023-03-02T03:19:48.336Z,100.00
2023-03-02T03:22:18.207Z,100.00
2023-03-02T03:24:49.270Z,100.00
2023-03-02T03:27:17.053Z,100.00
2023-03-02T03:29:50.154Z,100.00
2023-03-02T03:32:21.019Z,100.00
2023-03-02T03:34:50.551Z,100.00
2023-03-02T03:37:21.053Z,100.00
2023-03-02T03:39:52.902Z,100.00
2023-03-02T03:42:19.962Z,100.00
2023-03-02T03:44:47.604Z,100.00
2023-03-02T03:47:14.383Z,100.00
2023-03-02T03:49:44.220Z,100.00
2023-03-02T03:52:14.686Z,100.00
2023-03-02T03:54:43.887Z,100.00
2023-03-02T03:57:12.048Z,100.00
2023-03-02T03:59:38.765Z,100.00
2023-03-02T04:02:05.503Z,100.00
2023-03-02T04:04:35.327Z,100.00
2023-03-02T04:07:02.510Z,100.00
2023-03-02T04:09:32.630Z,100.00
2023-03-02T04:11:59.406Z,100.00
2023-03-02T04:14:26.340Z,100.00
2023-03-02T04:16:56.842Z,100.00
2023-03-02T04:19:25.231Z,100.00
2023-03-02T04:21:58.350Z,100.00
2023-03-02T04:24:25.304Z,100.00
2023-03-02T04:26:54.666Z,100.00
2023-03-02T04:29:21.523Z,100.00
2023-03-02T04:31:50.970Z,100.00
2023-03-02T04:34:17.946Z,100.00
2023-03-02T04:36:45.221Z,100.00
2023-03-02T04:39:17.247Z,100.00
2023-03-02T04:41:47.339Z,100.00
2023-03-02T04:44:16.830Z,100.00
2023-03-02T04:46:45.225Z,100.00
2023-03-02T04:49:14.652Z,100.00
2023-03-02T04:51:50.797Z,100.00
2023-03-02T04:54:25.370Z,100.00
2023-03-02T04:56:54.353Z,100.00
2023-03-02T04:59:27.187Z,100.00
2023-03-02T05:01:58.646Z,100.00
2023-03-02T05:04:27.904Z,100.00
2023-03-02T05:06:55.240Z,100.00
2023-03-02T05:09:28.781Z,100.00
2023-03-02T05:11:57.553Z,100.00
2023-03-02T05:14:26.522Z,100.00
2023-03-02T05:16:53.747Z,100.00
2023-03-02T05:19:26.886Z,100.00
2023-03-02T05:21:53.960Z,100.00
2023-03-02T05:24:20.623Z,100.00
2023-03-02T05:26:47.296Z,100.00
2023-03-02T05:29:14.158Z,100.00
2023-03-02T05:31:47.109Z,100.00
2023-03-02T05:34:17.305Z,100.00
2023-03-02T05:36:45.868Z,100.00
2023-03-02T05:39:16.069Z,100.00
2023-03-02T05:41:45.768Z,100.00
2023-03-02T05:44:12.594Z,100.00
2023-03-02T05:46:43.260Z,100.00
2023-03-02T05:49:10.629Z,100.00
2023-03-02T05:51:37.261Z,100.00
2023-03-02T05:54:04.207Z,100.00
2023-03-02T05:56:31.386Z,100.00
2023-03-02T05:58:58.821Z,100.00
2023-03-02T06:01:28.593Z,100.00
2023-03-02T06:03:55.948Z,100.00
2023-03-02T06:06:22.711Z,100.00
2023-03-02T06:08:49.428Z,100.00
2023-03-02T06:11:20.393Z,100.00
2023-03-02T06:13:47.160Z,100.00
2023-03-02T06:16:13.890Z,100.00
2023-03-02T06:18:46.036Z,100.00
2023-03-02T06:21:15.675Z,100.00
2023-03-02T06:23:42.584Z,100.00
2023-03-02T07:26:05.337Z,100.00
2023-03-02T07:28:33.499Z,100.00
2023-03-02T07:31:00.196Z,100.00
2023-03-02T07:33:26.902Z,100.00
2023-03-02T07:35:55.999Z,100.00
2023-03-02T07:38:22.922Z,100.00
2023-03-02T07:40:50.184Z,100.00
2023-03-02T07:43:16.819Z,100.00
2023-03-02T07:45:43.892Z,100.00
2023-03-02T07:48:10.670Z,100.00
2023-03-02T07:50:37.435Z,100.00
2023-03-02T07:53:04.248Z,100.00
2023-03-02T07:55:30.902Z,100.00
2023-03-02T07:57:57.646Z,100.00
2023-03-02T08:00:24.852Z,100.00
2023-03-02T08:02:51.550Z,100.00
2023-03-02T08:05:18.548Z,100.00
2023-03-02T08:07:47.104Z,100.00
2023-03-02T08:10:13.890Z,100.00
2023-03-02T08:12:45.808Z,100.00
2023-03-02T08:15:12.821Z,100.00
2023-03-02T08:17:41.883Z,100.00
2023-03-02T08:20:14.666Z,100.00
2023-03-02T08:22:44.598Z,100.00
2023-03-02T08:25:13.819Z,100.00
2023-03-02T08:27:44.416Z,100.00
2023-03-02T08:30:14.761Z,100.00
2023-03-02T08:32:44.563Z,100.00
2023-03-02T08:35:17.422Z,100.00
2023-03-02T08:37:44.241Z,100.00
2023-03-02T08:40:14.627Z,100.00
2023-03-02T08:42:44.446Z,100.00
2023-03-02T08:45:13.600Z,100.00
2023-03-02T08:47:43.167Z,100.00
2023-03-02T08:50:11.570Z,100.00
2023-03-02T08:52:38.357Z,100.00
2023-03-02T08:55:06.555Z,100.00
2023-03-02T08:57:34.746Z,100.00
2023-03-02T09:00:01.580Z,100.00
2023-03-02T09:02:28.276Z,100.00
2023-03-02T09:05:00.848Z,100.00
2023-03-02T09:07:27.596Z,100.00
2023-03-02T09:09:55.730Z,100.00
2023-03-02T09:12:22.573Z,100.00
2023-03-02T09:14:49.249Z,100.00
2023-03-02T09:17:17.282Z,100.00
2023-03-02T09:19:44.743Z,100.00
2023-03-02T09:22:11.895Z,100.00
2023-03-02T09:24:38.626Z,100.00
2023-03-02T09:27:05.305Z,100.00
2023-03-02T09:29:32.055Z,100.00
2023-03-02T09:32:01.765Z,100.00
2023-03-02T09:34:29.393Z,100.00
2023-03-02T09:36:56.522Z,100.00
2023-03-02T09:39:23.297Z,100.00
2023-03-02T09:42:08.285Z,100.00
2023-03-02T09:45:03.150Z,100.00
2023-03-02T09:47:45.656Z,100.00
2023-03-02T09:50:50.291Z,100.00
2023-03-02T09:53:45.192Z,100.00
2023-03-02T09:56:19.988Z,100.00
2023-03-02T09:59:08.042Z,100.00
2023-03-02T10:01:53.409Z,100.00
2023-03-02T10:04:53.329Z,100.00
2023-03-02T10:07:32.546Z,100.00
2023-03-02T10:10:39.023Z,100.00
2023-03-02T10:14:02.898Z,100.00
2023-03-02T10:16:49.746Z,100.00
2023-03-02T10:19:41.803Z,100.00
2023-03-02T10:22:41.600Z,100.00
2023-03-02T10:25:52.924Z,100.00
2023-03-02T10:28:26.346Z,100.00
2023-03-02T10:31:30.626Z,100.00
2023-03-02T10:34:01.446Z,100.00
2023-03-02T10:36:38.363Z,100.00
2023-03-02T10:39:15.345Z,100.00
2023-03-02T10:42:03.959Z,100.00
2023-03-02T10:44:42.189Z,100.00
2023-03-02T10:47:38.018Z,100.00
2023-03-02T10:50:21.132Z,100.00
2023-03-02T10:52:59.964Z,100.00
2023-03-02T10:55:28.941Z,100.00
2023-03-02T10:58:25.745Z,100.00
2023-03-02T11:01:16.948Z,100.00
2023-03-02T11:04:03.912Z,100.00
2023-03-02T11:06:31.035Z,100.00
2023-03-02T11:09:02.097Z,100.00
2023-03-02T11:11:30.209Z,100.00
2023-03-02T11:14:17.291Z,100.00
2023-03-02T11:16:44.104Z,100.00
2023-03-02T11:19:33.174Z,100.00
2023-03-02T11:22:25.009Z,100.00
2023-03-02T11:24:58.362Z,100.00
2023-03-02T11:27:35.353Z,100.00
2023-03-02T11:30:18.985Z,100.00
2023-03-02T11:33:27.695Z,100.00
2023-03-02T11:36:20.700Z,100.00
2023-03-02T11:38:55.058Z,100.00
2023-03-02T11:41:32.754Z,100.00
2023-03-02T11:44:19.489Z,100.00
2023-03-02T11:46:57.899Z,100.00
2023-03-02T11:49:57.207Z,100.00
2023-03-02T11:52:32.167Z,100.00
2023-03-02T11:55:19.992Z,100.00
2023-03-02T11:58:04.610Z,100.00
2023-03-02T12:00:37.328Z,100.00
2023-03-02T12:03:14.749Z,100.00
2023-03-02T12:06:05.208Z,100.00
2023-03-02T12:08:48.006Z,100.00
2023-03-02T12:11:17.876Z,100.00
2023-03-02T12:14:43.868Z,100.00
2023-03-02T12:17:37.001Z,100.00
2023-03-02T12:20:29.917Z,100.00
2023-03-02T12:23:24.100Z,100.00
2023-03-02T12:26:21.115Z,100.00
2023-03-02T12:29:23.862Z,100.00
2023-03-02T12:31:57.090Z,100.00
2023-03-02T12:34:35.106Z,100.00
2023-03-02T12:37:22.800Z,100.00
2023-03-02T12:40:38.360Z,100.00
2023-03-02T12:43:35.927Z,100.00
2023-03-02T12:50:22.117Z,100.00
2023-03-02T12:53:06.371Z,100.00
2023-03-02T12:55:34.615Z,100.00
2023-03-02T12:58:03.372Z,100.00
2023-03-02T13:00:35.352Z,100.00
2023-03-02T13:03:09.746Z,100.00
2023-03-02T13:05:37.408Z,100.00
2023-03-02T13:08:32.108Z,100.00
2023-03-02T13:11:05.447Z,100.00
2023-03-02T13:13:52.325Z,100.00
2023-03-02T13:16:36.502Z,100.00
2023-03-02T13:22:00.889Z,100.00
2023-03-02T13:24:45.618Z,100.00
2023-03-02T13:27:25.553Z,100.00
2023-03-02T13:29:55.672Z,100.00
2023-03-02T13:32:46.718Z,100.00
2023-03-02T13:35:30.030Z,100.00
2023-03-02T13:38:23.132Z,100.00
2023-03-02T13:40:55.221Z,100.00
2023-03-02T13:43:31.028Z,91.12
2023-03-02T13:46:11.246Z,85.23
2023-03-02T13:48:44.694Z,93.57
2023-03-02T13:51:24.035Z,100.00
2023-03-02T13:53:59.034Z,100.00
2023-03-02T13:56:38.794Z,100.00
2023-03-02T13:59:20.430Z,98.10
2023-03-02T14:01:47.743Z,87.89
2023-03-02T14:04:23.249Z,82.71
2023-03-02T14:06:55.961Z,85.58
2023-03-02T14:09:22.860Z,74.47
2023-03-02T14:11:55.866Z,81.35
2023-03-02T14:14:29.080Z,90.25
2023-03-02T14:16:56.806Z,95.46
2023-03-02T14:19:23.409Z,100.00
2023-03-02T14:21:50.155Z,91.85
2023-03-02T14:24:17.022Z,89.63
2023-03-02T14:26:48.835Z,91.63
2023-03-02T14:29:36.834Z,93.20
2023-03-02T14:32:09.653Z,99.41
2023-03-02T14:34:43.542Z,98.27
2023-03-02T14:37:27.639Z,97.57
2023-03-02T14:39:55.724Z,99.64
2023-03-02T14:42:23.613Z,93.92
2023-03-02T14:44:52.167Z,82.23
2023-03-02T14:47:19.581Z,81.40
2023-03-02T14:49:49.289Z,80.36
2023-03-02T14:52:43.146Z,75.39
2023-03-02T14:55:25.935Z,70.47
2023-03-02T14:58:17.611Z,71.43
2023-03-02T15:00:45.296Z,68.58
2023-03-02T15:03:25.578Z,68.27
2023-03-02T15:06:01.391Z,68.75
2023-03-02T15:08:30.156Z,68.09
2023-03-02T15:11:01.515Z,66.74
2023-03-02T15:13:28.285Z,67.39
2023-03-02T15:15:55.055Z,65.36
2023-03-02T15:18:21.740Z,64.86
2023-03-02T15:20:48.536Z,60.63
2023-03-02T15:23:15.285Z,60.47
2023-03-02T15:26:00.741Z,60.12
2023-03-02T15:28:27.455Z,61.11
2023-03-02T15:31:14.987Z,63.55
2023-03-02T15:33:51.222Z,67.56
2023-03-02T15:36:27.006Z,69.18
2023-03-02T15:38:53.673Z,70.28
2023-03-02T15:41:21.183Z,71.17
2023-03-02T15:43:55.112Z,72.20
2023-03-02T15:46:23.677Z,78.52
2023-03-02T15:48:53.765Z,91.85
2023-03-02T15:51:23.941Z,100.00
2023-03-02T15:53:53.621Z,100.00
2023-03-02T15:56:20.438Z,100.00
2023-03-02T15:58:51.442Z,100.00
2023-03-02T16:01:18.273Z,100.00
2023-03-02T16:03:45.703Z,100.00
2023-03-02T16:06:13.388Z,100.00
2023-03-02T16:08:49.747Z,100.00
2023-03-02T16:11:21.311Z,100.00
2023-03-02T16:13:48.205Z,100.00
2023-03-02T16:16:31.142Z,100.00
2023-03-02T16:19:04.388Z,100.00
2023-03-02T16:21:33.243Z,100.00
2023-03-02T16:24:03.920Z,100.00
2023-03-02T16:26:42.791Z,100.00
2023-03-02T16:29:13.195Z,100.00
2023-03-02T16:31:47.144Z,100.00
2023-03-02T16:34:16.571Z,100.00
2023-03-02T16:36:46.281Z,100.00
2023-03-02T16:39:14.426Z,100.00
2023-03-02T16:41:48.725Z,100.00
2023-03-02T16:44:16.092Z,100.00
2023-03-02T16:46:46.501Z,100.00
2023-03-02T16:49:16.520Z,100.00
2023-03-02T16:51:57.984Z,100.00
2023-03-02T16:54:30.325Z,100.00
2023-03-02T16:56:59.744Z,100.00
2023-03-02T16:59:26.617Z,100.00
2023-03-02T17:01:56.206Z,100.00
2023-03-02T17:04:23.002Z,100.00
2023-03-02T17:07:03.884Z,100.00
2023-03-02T17:09:35.277Z,100.00
2023-03-02T17:12:02.258Z,100.00
2023-03-02T17:14:29.298Z,100.00
2023-03-02T17:17:07.160Z,100.00
2023-03-02T17:19:36.950Z,100.00
2023-03-02T17:22:11.322Z,100.00
2023-03-02T17:24:38.265Z,100.00
2023-03-02T17:27:19.058Z,100.00
2023-03-02T17:29:52.356Z,100.00
2023-03-02T17:32:22.724Z,100.00
2023-03-02T17:34:50.537Z,100.00
2023-03-02T17:37:17.721Z,100.00
2023-03-02T17:39:53.542Z,100.00
2023-03-02T17:42:20.478Z,100.00
2023-03-02T17:44:50.179Z,100.00
2023-03-02T17:47:17.233Z,100.00
2023-03-02T17:49:45.210Z,100.00
2023-03-02T17:52:20.953Z,100.00
2023-03-02T17:54:53.705Z,100.00
2023-03-02T17:57:23.043Z,100.00
2023-03-02T17:59:50.481Z,100.00
2023-03-02T18:02:19.171Z,100.00
2023-03-02T18:04:48.588Z,100.00
2023-03-02T18:07:16.659Z,100.00
2023-03-02T18:09:55.258Z,100.00
2023-03-02T18:12:22.187Z,100.00
2023-03-02T18:14:50.184Z,100.00
2023-03-02T18:17:24.588Z,100.00
2023-03-02T18:19:51.434Z,100.00
2023-03-02T18:22:18.121Z,100.00
2023-03-02T18:24:45.178Z,100.00
2023-03-02T18:27:13.933Z,100.00
2023-03-02T18:29:46.330Z,100.00
2023-03-02T18:32:16.365Z,100.00
2023-03-02T18:34:43.192Z,100.00
2023-03-02T18:37:09.976Z,100.00
2023-03-02T18:39:46.793Z,100.00
2023-03-02T18:42:16.566Z,100.00
2023-03-02T18:44:43.325Z,100.00
2023-03-02T18:47:21.618Z,100.00
2023-03-02T18:49:52.066Z,100.00
2023-03-02T18:52:20.230Z,100.00
